Kezdőlap
METAR-TAF:

METAR-TAF

Repülőterek :

Damaszkuszi nemzetközi repülőtér

Damaszkusz, Szíria

földrajzi szélesség: 33-25N, földrajzi hosszúság: 036-31E, magasság: 608 m

Jelenlegi meteorológiai megfigyelések

A jelentés 23 perccel ezelõtt készült, 04:00 UTC
Északi szél 2 kt
Hőmérséklet 4°C
Páratartalom 93%
Légköri nyomás 1020 hPa
Látótávolság: 0100 m
köd

METAR: OSDI 100400Z 35002KT 0100 R23/0100 FG 04/03 Q1020

Idő: 06:23 (04:23 UTC)

Előrejelzés

Az előrejelzés 10-én 00 óra UTC és 11-én 06 óra UTC között érvényes
Különbözõ irányokból fújó szél 3 kt
Látótávolság: 3000 m
Párásság
10-én 02 óra UTC és 10-én 06 óra UTC között ideiglenes
Látótávolság: 0200 m
köd
10-én 08 óra UTC és 10-én 11 óra UTC között fokozatosan kialakuló
Nyugati szél 12 kt
Látótávolság 10 km, vagy több
Szórványos felhőzet 3000 lábon

TAF: OSDI 1000/1106 VRB03KT 3000 BR TEMPO 1002/1006 0200 FG BECMG 1008/1011 26012KT 9999 SCT030

Meteorológiai megfigyelések és előrejelzések több, mint 4000 repülőtéren (METAR és TAF jelentéseket).

A térképen piros és sárga pontok jelzik az elérhető meteorológiai állomásokat.

Mozgassa az egeret a pont fölött, hogy megjelenjen az állomás neve.

Azután kattintson az időjárási megfigyelések és előrejelzések megtekintéséhez.

A térkép megváltoztatása: kattintson a fekete keresztel jelölt zöld gombra ráközelítéshez, a vonallal jelölt zöld gombra távolításhoz, vagy a zöld nyilakra a szomszédos térképek eléréséhez.


METAR-TAF: